sensor_id;sensor_type;location;lat;lon;timestamp;P1;durP1;ratioP1;P2;durP2;ratioP2
77736;SDS011;66903;59.926;30.404;2023-11-19T00:04:01;1.83;;;0.68;;
77736;SDS011;66903;59.926;30.404;2023-11-19T00:09:11;1.77;;;0.60;;
77736;SDS011;66903;59.926;30.404;2023-11-19T00:14:22;2.30;;;0.65;;
77736;SDS011;66903;59.926;30.404;2023-11-19T00:19:34;1.35;;;0.47;;
77736;SDS011;66903;59.926;30.404;2023-11-19T00:24:45;1.80;;;0.60;;
77736;SDS011;66903;59.926;30.404;2023-11-19T00:29:56;2.17;;;0.60;;
77736;SDS011;66903;59.926;30.404;2023-11-19T00:35:07;2.25;;;0.70;;
77736;SDS011;66903;59.926;30.404;2023-11-19T00:40:20;1.77;;;0.63;;
77736;SDS011;66903;59.926;30.404;2023-11-19T00:45:33;2.90;;;0.90;;
77736;SDS011;66903;59.926;30.404;2023-11-19T00:50:44;2.00;;;0.60;;
77736;SDS011;66903;59.926;30.404;2023-11-19T00:55:56;2.10;;;0.70;;
77736;SDS011;66903;59.926;30.404;2023-11-19T01:01:07;2.50;;;0.85;;
77736;SDS011;66903;59.926;30.404;2023-11-19T01:06:27;1.60;;;0.60;;
77736;SDS011;66903;59.926;30.404;2023-11-19T01:11:41;2.03;;;0.68;;
77736;SDS011;66903;59.926;30.404;2023-11-19T01:16:52;2.50;;;0.90;;
77736;SDS011;66903;59.926;30.404;2023-11-19T01:22:04;2.22;;;0.80;;
77736;SDS011;66903;59.926;30.404;2023-11-19T01:27:15;2.28;;;0.75;;
77736;SDS011;66903;59.926;30.404;2023-11-19T01:32:26;3.30;;;0.93;;
77736;SDS011;66903;59.926;30.404;2023-11-19T01:37:36;3.33;;;1.05;;
77736;SDS011;66903;59.926;30.404;2023-11-19T01:42:47;3.00;;;1.10;;
77736;SDS011;66903;59.926;30.404;2023-11-19T01:48:00;2.70;;;0.82;;
77736;SDS011;66903;59.926;30.404;2023-11-19T01:53:16;2.83;;;1.10;;
77736;SDS011;66903;59.926;30.404;2023-11-19T01:58:27;2.25;;;0.80;;
77736;SDS011;66903;59.926;30.404;2023-11-19T02:03:40;4.22;;;1.10;;
77736;SDS011;66903;59.926;30.404;2023-11-19T02:08:51;2.42;;;0.75;;
77736;SDS011;66903;59.926;30.404;2023-11-19T02:14:02;2.92;;;0.88;;
77736;SDS011;66903;59.926;30.404;2023-11-19T02:19:15;3.05;;;1.00;;
77736;SDS011;66903;59.926;30.404;2023-11-19T02:24:46;2.20;;;0.93;;
77736;SDS011;66903;59.926;30.404;2023-11-19T02:30:00;2.55;;;0.90;;
77736;SDS011;66903;59.926;30.404;2023-11-19T02:35:11;3.40;;;1.05;;
77736;SDS011;66903;59.926;30.404;2023-11-19T02:40:21;2.47;;;0.93;;
77736;SDS011;66903;59.926;30.404;2023-11-19T02:45:34;3.10;;;1.00;;
77736;SDS011;66903;59.926;30.404;2023-11-19T02:50:46;3.88;;;1.20;;
77736;SDS011;66903;59.926;30.404;2023-11-19T02:55:58;2.13;;;0.73;;
77736;SDS011;66903;59.926;30.404;2023-11-19T03:01:20;2.60;;;0.80;;
77736;SDS011;66903;59.926;30.404;2023-11-19T03:06:34;2.85;;;1.00;;
77736;SDS011;66903;59.926;30.404;2023-11-19T03:11:45;2.40;;;0.80;;
77736;SDS011;66903;59.926;30.404;2023-11-19T03:16:55;3.13;;;0.80;;
77736;SDS011;66903;59.926;30.404;2023-11-19T03:22:06;2.67;;;0.80;;
77736;SDS011;66903;59.926;30.404;2023-11-19T03:27:17;2.95;;;1.00;;
77736;SDS011;66903;59.926;30.404;2023-11-19T03:32:28;2.72;;;0.85;;
77736;SDS011;66903;59.926;30.404;2023-11-19T03:37:39;2.85;;;1.00;;
77736;SDS011;66903;59.926;30.404;2023-11-19T03:42:49;4.28;;;1.00;;
77736;SDS011;66903;59.926;30.404;2023-11-19T03:48:00;3.22;;;1.00;;
77736;SDS011;66903;59.926;30.404;2023-11-19T03:53:11;3.40;;;1.10;;
77736;SDS011;66903;59.926;30.404;2023-11-19T03:58:22;2.97;;;0.93;;
77736;SDS011;66903;59.926;30.404;2023-11-19T04:03:33;2.50;;;0.85;;
77736;SDS011;66903;59.926;30.404;2023-11-19T04:08:44;2.85;;;1.00;;
77736;SDS011;66903;59.926;30.404;2023-11-19T04:13:54;2.55;;;0.90;;
77736;SDS011;66903;59.926;30.404;2023-11-19T04:19:05;3.40;;;1.20;;
77736;SDS011;66903;59.926;30.404;2023-11-19T04:24:16;2.75;;;0.80;;
77736;SDS011;66903;59.926;30.404;2023-11-19T04:29:27;2.47;;;0.88;;
77736;SDS011;66903;59.926;30.404;2023-11-19T04:34:38;2.22;;;0.90;;
77736;SDS011;66903;59.926;30.404;2023-11-19T04:39:49;2.40;;;0.80;;
77736;SDS011;66903;59.926;30.404;2023-11-19T04:44:59;2.28;;;0.80;;
77736;SDS011;66903;59.926;30.404;2023-11-19T04:50:10;1.75;;;0.60;;
77736;SDS011;66903;59.926;30.404;2023-11-19T04:55:21;2.03;;;0.70;;
77736;SDS011;66903;59.926;30.404;2023-11-19T05:00:32;2.20;;;0.77;;
77736;SDS011;66903;59.926;30.404;2023-11-19T05:05:43;2.53;;;0.90;;
77736;SDS011;66903;59.926;30.404;2023-11-19T05:10:54;5.03;;;0.90;;
77736;SDS011;66903;59.926;30.404;2023-11-19T05:16:05;1.88;;;0.68;;
77736;SDS011;66903;59.926;30.404;2023-11-19T05:21:16;2.67;;;0.80;;
77736;SDS011;66903;59.926;30.404;2023-11-19T05:26:28;1.83;;;0.65;;
77736;SDS011;66903;59.926;30.404;2023-11-19T05:31:39;2.45;;;0.77;;
77736;SDS011;66903;59.926;30.404;2023-11-19T05:36:49;2.50;;;0.80;;
77736;SDS011;66903;59.926;30.404;2023-11-19T05:42:00;2.72;;;0.80;;
77736;SDS011;66903;59.926;30.404;2023-11-19T05:47:11;2.03;;;0.60;;
77736;SDS011;66903;59.926;30.404;2023-11-19T05:52:22;1.75;;;0.60;;
77736;SDS011;66903;59.926;30.404;2023-11-19T05:57:33;1.98;;;0.68;;
77736;SDS011;66903;59.926;30.404;2023-11-19T06:02:45;1.15;;;0.50;;
77736;SDS011;66903;59.926;30.404;2023-11-19T06:07:55;2.30;;;0.70;;
77736;SDS011;66903;59.926;30.404;2023-11-19T06:13:07;1.58;;;0.50;;
77736;SDS011;66903;59.926;30.404;2023-11-19T06:18:20;170.82;;;46.25;;
77736;SDS011;66903;59.926;30.404;2023-11-19T06:23:31;328.33;;;112.65;;
77736;SDS011;66903;59.926;30.404;2023-11-19T06:28:42;290.58;;;98.22;;
77736;SDS011;66903;59.926;30.404;2023-11-19T06:33:52;319.38;;;120.63;;
77736;SDS011;66903;59.926;30.404;2023-11-19T06:39:03;269.45;;;101.55;;
77736;SDS011;66903;59.926;30.404;2023-11-19T06:44:14;247.15;;;90.90;;
77736;SDS011;66903;59.926;30.404;2023-11-19T06:49:25;190.02;;;73.53;;
77736;SDS011;66903;59.926;30.404;2023-11-19T06:54:36;166.02;;;61.72;;
77736;SDS011;66903;59.926;30.404;2023-11-19T06:59:48;150.85;;;54.10;;
77736;SDS011;66903;59.926;30.404;2023-11-19T07:04:59;136.77;;;50.33;;
77736;SDS011;66903;59.926;30.404;2023-11-19T07:10:10;105.88;;;41.05;;
77736;SDS011;66903;59.926;30.404;2023-11-19T07:15:21;104.38;;;38.35;;
77736;SDS011;66903;59.926;30.404;2023-11-19T07:20:32;87.20;;;32.55;;
77736;SDS011;66903;59.926;30.404;2023-11-19T07:25:43;76.10;;;29.15;;
77736;SDS011;66903;59.926;30.404;2023-11-19T07:30:57;69.93;;;25.63;;
77736;SDS011;66903;59.926;30.404;2023-11-19T07:36:08;65.47;;;22.77;;
77736;SDS011;66903;59.926;30.404;2023-11-19T07:41:19;51.13;;;18.00;;
77736;SDS011;66903;59.926;30.404;2023-11-19T07:46:30;38.97;;;14.25;;
77736;SDS011;66903;59.926;30.404;2023-11-19T07:51:42;38.05;;;14.63;;
77736;SDS011;66903;59.926;30.404;2023-11-19T07:56:52;35.35;;;13.10;;
77736;SDS011;66903;59.926;30.404;2023-11-19T08:02:03;33.95;;;13.25;;
77736;SDS011;66903;59.926;30.404;2023-11-19T08:07:15;30.13;;;11.05;;
77736;SDS011;66903;59.926;30.404;2023-11-19T08:12:26;27.65;;;9.50;;
77736;SDS011;66903;59.926;30.404;2023-11-19T08:17:37;28.13;;;11.13;;
77736;SDS011;66903;59.926;30.404;2023-11-19T08:22:48;27.00;;;9.00;;
77736;SDS011;66903;59.926;30.404;2023-11-19T08:27:59;20.17;;;7.97;;
77736;SDS011;66903;59.926;30.404;2023-11-19T08:33:10;17.27;;;7.50;;
77736;SDS011;66903;59.926;30.404;2023-11-19T08:38:21;15.95;;;6.32;;
77736;SDS011;66903;59.926;30.404;2023-11-19T08:43:32;17.92;;;6.03;;
77736;SDS011;66903;59.926;30.404;2023-11-19T08:48:43;15.98;;;5.35;;
77736;SDS011;66903;59.926;30.404;2023-11-19T08:53:54;14.10;;;4.68;;
77736;SDS011;66903;59.926;30.404;2023-11-19T08:59:05;11.25;;;4.25;;
77736;SDS011;66903;59.926;30.404;2023-11-19T09:04:16;11.18;;;4.43;;
77736;SDS011;66903;59.926;30.404;2023-11-19T09:09:26;10.98;;;3.67;;
77736;SDS011;66903;59.926;30.404;2023-11-19T09:14:37;11.40;;;4.18;;
77736;SDS011;66903;59.926;30.404;2023-11-19T09:19:48;7.97;;;3.33;;
77736;SDS011;66903;59.926;30.404;2023-11-19T09:24:59;6.72;;;2.92;;
77736;SDS011;66903;59.926;30.404;2023-11-19T09:30:10;9.35;;;2.70;;
77736;SDS011;66903;59.926;30.404;2023-11-19T09:35:21;9.27;;;3.60;;
77736;SDS011;66903;59.926;30.404;2023-11-19T09:40:32;8.15;;;2.92;;
77736;SDS011;66903;59.926;30.404;2023-11-19T09:45:49;7.15;;;2.47;;
77736;SDS011;66903;59.926;30.404;2023-11-19T09:51:01;6.90;;;3.00;;
77736;SDS011;66903;59.926;30.404;2023-11-19T09:56:12;6.28;;;2.45;;
77736;SDS011;66903;59.926;30.404;2023-11-19T10:01:23;7.80;;;2.55;;
77736;SDS011;66903;59.926;30.404;2023-11-19T10:06:35;8.98;;;2.50;;
77736;SDS011;66903;59.926;30.404;2023-11-19T10:11:46;6.78;;;2.53;;
77736;SDS011;66903;59.926;30.404;2023-11-19T10:16:56;7.68;;;2.50;;
77736;SDS011;66903;59.926;30.404;2023-11-19T10:22:08;9.60;;;2.33;;
77736;SDS011;66903;59.926;30.404;2023-11-19T10:27:20;6.45;;;2.30;;
77736;SDS011;66903;59.926;30.404;2023-11-19T10:32:34;6.80;;;2.13;;
77736;SDS011;66903;59.926;30.404;2023-11-19T10:37:45;4.30;;;1.70;;
77736;SDS011;66903;59.926;30.404;2023-11-19T10:43:02;8.70;;;1.73;;
77736;SDS011;66903;59.926;30.404;2023-11-19T10:48:13;5.40;;;2.00;;
77736;SDS011;66903;59.926;30.404;2023-11-19T10:53:24;5.28;;;1.50;;
77736;SDS011;66903;59.926;30.404;2023-11-19T10:58:37;8.43;;;2.00;;
77736;SDS011;66903;59.926;30.404;2023-11-19T11:03:52;5.63;;;1.55;;
77736;SDS011;66903;59.926;30.404;2023-11-19T11:09:07;4.75;;;1.70;;
77736;SDS011;66903;59.926;30.404;2023-11-19T11:14:22;4.65;;;1.40;;
77736;SDS011;66903;59.926;30.404;2023-11-19T11:19:35;5.30;;;1.40;;
77736;SDS011;66903;59.926;30.404;2023-11-19T11:30:34;3.33;;;1.20;;
77736;SDS011;66903;59.926;30.404;2023-11-19T11:41:29;4.53;;;1.23;;
77736;SDS011;66903;59.926;30.404;2023-11-19T11:52:00;3.20;;;0.90;;
77736;SDS011;66903;59.926;30.404;2023-11-19T11:57:13;3.10;;;1.10;;
77736;SDS011;66903;59.926;30.404;2023-11-19T12:02:26;5.90;;;1.52;;
77736;SDS011;66903;59.926;30.404;2023-11-19T12:07:37;3.25;;;0.90;;
77736;SDS011;66903;59.926;30.404;2023-11-19T12:12:52;3.25;;;1.10;;
77736;SDS011;66903;59.926;30.404;2023-11-19T12:18:08;4.32;;;1.20;;
77736;SDS011;66903;59.926;30.404;2023-11-19T12:23:19;3.60;;;0.90;;
77736;SDS011;66903;59.926;30.404;2023-11-19T12:28:30;3.42;;;0.90;;
77736;SDS011;66903;59.926;30.404;2023-11-19T12:33:40;6.22;;;1.10;;
77736;SDS011;66903;59.926;30.404;2023-11-19T12:38:51;13.55;;;1.70;;
77736;SDS011;66903;59.926;30.404;2023-11-19T12:44:11;4.05;;;0.90;;
77736;SDS011;66903;59.926;30.404;2023-11-19T12:49:22;3.03;;;1.02;;
77736;SDS011;66903;59.926;30.404;2023-11-19T12:54:33;2.95;;;1.05;;
77736;SDS011;66903;59.926;30.404;2023-11-19T12:59:56;4.13;;;1.30;;
77736;SDS011;66903;59.926;30.404;2023-11-19T13:05:20;4.18;;;1.50;;
77736;SDS011;66903;59.926;30.404;2023-11-19T13:10:51;3.90;;;1.02;;
77736;SDS011;66903;59.926;30.404;2023-11-19T13:16:05;6.93;;;1.50;;
77736;SDS011;66903;59.926;30.404;2023-11-19T13:21:17;3.40;;;1.02;;
77736;SDS011;66903;59.926;30.404;2023-11-19T13:26:28;2.40;;;0.93;;
77736;SDS011;66903;59.926;30.404;2023-11-19T13:31:39;3.30;;;1.10;;
77736;SDS011;66903;59.926;30.404;2023-11-19T13:36:49;2.40;;;1.10;;
77736;SDS011;66903;59.926;30.404;2023-11-19T13:42:00;2.80;;;1.00;;
77736;SDS011;66903;59.926;30.404;2023-11-19T13:47:11;2.90;;;0.90;;
77736;SDS011;66903;59.926;30.404;2023-11-19T13:52:24;3.75;;;1.13;;
77736;SDS011;66903;59.926;30.404;2023-11-19T13:57:35;2.35;;;0.88;;
77736;SDS011;66903;59.926;30.404;2023-11-19T14:02:46;1.65;;;0.60;;
77736;SDS011;66903;59.926;30.404;2023-11-19T14:07:57;245.30;;;64.40;;
77736;SDS011;66903;59.926;30.404;2023-11-19T14:13:08;250.43;;;79.20;;
77736;SDS011;66903;59.926;30.404;2023-11-19T14:18:19;221.73;;;68.68;;
77736;SDS011;66903;59.926;30.404;2023-11-19T14:23:30;250.77;;;85.65;;
77736;SDS011;66903;59.926;30.404;2023-11-19T14:28:41;207.15;;;71.50;;
77736;SDS011;66903;59.926;30.404;2023-11-19T14:33:52;206.23;;;70.25;;
77736;SDS011;66903;59.926;30.404;2023-11-19T14:39:03;192.23;;;64.47;;
77736;SDS011;66903;59.926;30.404;2023-11-19T14:44:14;167.95;;;54.75;;
77736;SDS011;66903;59.926;30.404;2023-11-19T14:49:24;136.30;;;47.88;;
77736;SDS011;66903;59.926;30.404;2023-11-19T14:54:36;111.88;;;37.33;;
77736;SDS011;66903;59.926;30.404;2023-11-19T14:59:48;96.50;;;34.15;;
77736;SDS011;66903;59.926;30.404;2023-11-19T15:04:59;81.20;;;31.63;;
77736;SDS011;66903;59.926;30.404;2023-11-19T15:10:10;60.92;;;22.67;;
77736;SDS011;66903;59.926;30.404;2023-11-19T15:15:22;54.20;;;19.65;;
77736;SDS011;66903;59.926;30.404;2023-11-19T15:20:33;41.97;;;16.27;;
77736;SDS011;66903;59.926;30.404;2023-11-19T15:25:44;41.10;;;14.40;;
77736;SDS011;66903;59.926;30.404;2023-11-19T15:30:55;32.00;;;12.20;;
77736;SDS011;66903;59.926;30.404;2023-11-19T15:36:06;13.70;;;5.63;;
77736;SDS011;66903;59.926;30.404;2023-11-19T15:41:18;13.18;;;4.78;;
77736;SDS011;66903;59.926;30.404;2023-11-19T15:46:28;14.48;;;6.05;;
77736;SDS011;66903;59.926;30.404;2023-11-19T15:51:39;13.98;;;4.70;;
77736;SDS011;66903;59.926;30.404;2023-11-19T15:56:50;12.63;;;4.32;;
77736;SDS011;66903;59.926;30.404;2023-11-19T16:02:01;11.40;;;3.92;;
77736;SDS011;66903;59.926;30.404;2023-11-19T16:07:12;10.95;;;4.03;;
77736;SDS011;66903;59.926;30.404;2023-11-19T16:12:23;12.60;;;5.60;;
77736;SDS011;66903;59.926;30.404;2023-11-19T16:17:33;13.38;;;5.57;;
77736;SDS011;66903;59.926;30.404;2023-11-19T16:22:45;8.95;;;4.28;;
77736;SDS011;66903;59.926;30.404;2023-11-19T16:27:56;9.45;;;3.35;;
77736;SDS011;66903;59.926;30.404;2023-11-19T16:38:19;6.78;;;2.45;;
77736;SDS011;66903;59.926;30.404;2023-11-19T16:43:33;10.07;;;2.65;;
77736;SDS011;66903;59.926;30.404;2023-11-19T16:48:46;4.95;;;2.28;;
77736;SDS011;66903;59.926;30.404;2023-11-19T16:54:03;9.45;;;2.05;;
77736;SDS011;66903;59.926;30.404;2023-11-19T16:59:14;12.63;;;6.78;;
77736;SDS011;66903;59.926;30.404;2023-11-19T17:04:25;6.35;;;2.03;;
77736;SDS011;66903;59.926;30.404;2023-11-19T17:09:37;6.50;;;1.60;;
77736;SDS011;66903;59.926;30.404;2023-11-19T17:14:49;6.47;;;1.90;;
77736;SDS011;66903;59.926;30.404;2023-11-19T17:20:00;4.47;;;1.52;;
77736;SDS011;66903;59.926;30.404;2023-11-19T17:25:14;5.32;;;1.92;;
77736;SDS011;66903;59.926;30.404;2023-11-19T17:30:25;4.43;;;1.48;;
77736;SDS011;66903;59.926;30.404;2023-11-19T17:35:36;4.47;;;1.65;;
77736;SDS011;66903;59.926;30.404;2023-11-19T17:40:47;3.80;;;1.35;;
77736;SDS011;66903;59.926;30.404;2023-11-19T17:45:58;7.13;;;1.40;;
77736;SDS011;66903;59.926;30.404;2023-11-19T17:51:11;4.50;;;1.50;;
77736;SDS011;66903;59.926;30.404;2023-11-19T17:56:25;4.25;;;1.38;;
77736;SDS011;66903;59.926;30.404;2023-11-19T18:01:36;4.70;;;1.45;;
77736;SDS011;66903;59.926;30.404;2023-11-19T18:06:48;4.78;;;1.50;;
77736;SDS011;66903;59.926;30.404;2023-11-19T18:11:59;2.58;;;0.95;;
77736;SDS011;66903;59.926;30.404;2023-11-19T18:17:10;3.65;;;1.23;;
77736;SDS011;66903;59.926;30.404;2023-11-19T18:22:21;3.13;;;0.95;;
77736;SDS011;66903;59.926;30.404;2023-11-19T18:27:32;3.63;;;1.40;;
77736;SDS011;66903;59.926;30.404;2023-11-19T18:32:43;3.58;;;1.27;;
77736;SDS011;66903;59.926;30.404;2023-11-19T18:37:55;3.70;;;1.30;;
77736;SDS011;66903;59.926;30.404;2023-11-19T18:43:05;3.97;;;1.25;;
77736;SDS011;66903;59.926;30.404;2023-11-19T18:48:16;4.15;;;1.25;;
77736;SDS011;66903;59.926;30.404;2023-11-19T18:53:27;5.28;;;1.70;;
77736;SDS011;66903;59.926;30.404;2023-11-19T18:58:38;8.65;;;2.10;;
77736;SDS011;66903;59.926;30.404;2023-11-19T19:03:49;12.07;;;3.05;;
77736;SDS011;66903;59.926;30.404;2023-11-19T19:09:00;13.50;;;4.28;;
77736;SDS011;66903;59.926;30.404;2023-11-19T19:14:11;10.38;;;3.65;;
77736;SDS011;66903;59.926;30.404;2023-11-19T19:19:22;14.57;;;3.13;;
77736;SDS011;66903;59.926;30.404;2023-11-19T19:24:33;11.63;;;2.92;;
77736;SDS011;66903;59.926;30.404;2023-11-19T19:29:46;13.85;;;2.50;;
77736;SDS011;66903;59.926;30.404;2023-11-19T19:34:57;9.20;;;2.33;;
77736;SDS011;66903;59.926;30.404;2023-11-19T19:40:09;10.30;;;2.33;;
77736;SDS011;66903;59.926;30.404;2023-11-19T19:45:23;7.25;;;1.90;;
77736;SDS011;66903;59.926;30.404;2023-11-19T19:50:35;6.05;;;1.77;;
77736;SDS011;66903;59.926;30.404;2023-11-19T19:55:46;6.88;;;2.50;;
77736;SDS011;66903;59.926;30.404;2023-11-19T20:00:57;6.07;;;1.75;;
77736;SDS011;66903;59.926;30.404;2023-11-19T20:06:08;5.20;;;1.65;;
77736;SDS011;66903;59.926;30.404;2023-11-19T20:11:21;10.43;;;1.90;;
77736;SDS011;66903;59.926;30.404;2023-11-19T20:16:32;19.17;;;2.30;;
77736;SDS011;66903;59.926;30.404;2023-11-19T20:21:43;5.45;;;1.77;;
77736;SDS011;66903;59.926;30.404;2023-11-19T20:26:54;4.57;;;1.58;;
77736;SDS011;66903;59.926;30.404;2023-11-19T20:32:04;5.70;;;1.60;;
77736;SDS011;66903;59.926;30.404;2023-11-19T20:37:16;3.53;;;1.30;;
77736;SDS011;66903;59.926;30.404;2023-11-19T20:42:27;7.63;;;2.53;;
77736;SDS011;66903;59.926;30.404;2023-11-19T20:47:38;7.30;;;2.40;;
77736;SDS011;66903;59.926;30.404;2023-11-19T20:52:49;5.70;;;2.22;;
77736;SDS011;66903;59.926;30.404;2023-11-19T20:58:02;5.25;;;1.85;;
77736;SDS011;66903;59.926;30.404;2023-11-19T21:03:13;4.72;;;1.55;;
77736;SDS011;66903;59.926;30.404;2023-11-19T21:08:24;4.55;;;1.80;;
77736;SDS011;66903;59.926;30.404;2023-11-19T21:13:37;4.85;;;1.45;;
77736;SDS011;66903;59.926;30.404;2023-11-19T21:18:48;5.25;;;1.55;;
77736;SDS011;66903;59.926;30.404;2023-11-19T21:23:59;4.28;;;1.67;;
77736;SDS011;66903;59.926;30.404;2023-11-19T21:29:10;5.43;;;1.50;;
77736;SDS011;66903;59.926;30.404;2023-11-19T21:34:23;3.78;;;1.17;;
77736;SDS011;66903;59.926;30.404;2023-11-19T21:39:35;3.55;;;1.20;;
77736;SDS011;66903;59.926;30.404;2023-11-19T21:44:46;5.70;;;1.02;;
77736;SDS011;66903;59.926;30.404;2023-11-19T21:49:57;4.32;;;1.27;;
77736;SDS011;66903;59.926;30.404;2023-11-19T21:55:07;3.80;;;1.15;;
77736;SDS011;66903;59.926;30.404;2023-11-19T22:00:19;3.05;;;0.98;;
77736;SDS011;66903;59.926;30.404;2023-11-19T22:05:31;2.35;;;0.73;;
77736;SDS011;66903;59.926;30.404;2023-11-19T22:10:41;1.77;;;0.75;;
77736;SDS011;66903;59.926;30.404;2023-11-19T22:15:55;2.80;;;0.80;;
77736;SDS011;66903;59.926;30.404;2023-11-19T22:21:06;3.03;;;1.00;;
77736;SDS011;66903;59.926;30.404;2023-11-19T22:26:16;2.13;;;0.80;;
77736;SDS011;66903;59.926;30.404;2023-11-19T22:31:30;2.67;;;0.90;;
77736;SDS011;66903;59.926;30.404;2023-11-19T22:36:42;3.13;;;0.90;;
77736;SDS011;66903;59.926;30.404;2023-11-19T22:41:53;2.72;;;0.90;;
77736;SDS011;66903;59.926;30.404;2023-11-19T22:47:04;2.58;;;0.98;;
77736;SDS011;66903;59.926;30.404;2023-11-19T22:52:15;3.08;;;0.90;;
77736;SDS011;66903;59.926;30.404;2023-11-19T22:57:26;2.45;;;0.90;;
77736;SDS011;66903;59.926;30.404;2023-11-19T23:02:37;2.55;;;0.82;;
77736;SDS011;66903;59.926;30.404;2023-11-19T23:07:48;3.50;;;1.00;;
77736;SDS011;66903;59.926;30.404;2023-11-19T23:13:00;2.38;;;0.85;;
77736;SDS011;66903;59.926;30.404;2023-11-19T23:18:11;2.58;;;0.77;;
77736;SDS011;66903;59.926;30.404;2023-11-19T23:23:21;2.08;;;0.80;;
77736;SDS011;66903;59.926;30.404;2023-11-19T23:28:32;2.35;;;0.77;;
77736;SDS011;66903;59.926;30.404;2023-11-19T23:33:43;2.22;;;0.70;;
77736;SDS011;66903;59.926;30.404;2023-11-19T23:38:54;2.10;;;0.80;;
77736;SDS011;66903;59.926;30.404;2023-11-19T23:44:04;2.08;;;0.70;;
77736;SDS011;66903;59.926;30.404;2023-11-19T23:49:16;2.47;;;0.70;;
77736;SDS011;66903;59.926;30.404;2023-11-19T23:54:26;1.90;;;0.93;;
77736;SDS011;66903;59.926;30.404;2023-11-19T23:59:37;2.47;;;0.90;;
